M I D A S
Marine Information and Data Acquisition System
Tripno 1886 of the Zeeleeuw from 2010-05-25 07:47:05 to 2010-05-25 14:29:09
Back to CruiseResearch ActivitiesStationsMapUnderway DataData graphs

EquipmentUnitsComment
TimeDGPSUTC
LatitudeDGPSDM.mWGS84
LongitudeDGPSDM.mWGS84
TemperatureSBE03/SBE38deg celciusITS90
ConductivitySBE21S/mITS90
SalinitySBE21 Practical Salinity Units
ChlorophylAChelsea fluorimeterg/lCalibrated in Aceton
Missing or incorrect values are displayed as -999
Sea surface data collected by the RV Zeeleeuw from 2010-05-25 07:35:30 to 2010-05-25 14:38:49
Time Latitude Longitude Temperature Conductivity Salinity ChlorophylA
2010-05-25 07:36:36 51°13.667 2°55.932 21.2902 0.081393 0.426281 -1.070216
2010-05-25 07:37:38 51°13.688 2°55.822 21.3376 0.081393 0.426339 -1.000568
2010-05-25 07:38:36 51°13.698 2°55.745 21.354 0.081393 0.426378 -1.035392
2010-05-25 07:39:35 51°13.701 2°55.737 21.2965 0.081393 0.42641 -1.035392
2010-05-25 07:40:38 51°13.704 2°55.719 21.3936 0.081393 0.426449 -1.000568
2010-05-25 07:41:36 51°13.778 2°55.674 21.14 0.081393 0.426475 -1.000568
2010-05-25 07:42:35 51°13.887 2°55.588 21.1397 0.081393 0.426527 -1.035392
2010-05-25 07:43:35 51°14.012 2°55.501 21.1697 0.081393 0.426591 -1.000568
2010-05-25 07:44:35 51°14.142 2°55.4 21.0055 0.081393 0.42663 -1.000568
2010-05-25 07:45:35 51°14.285 2°55.275 20.98 0.081393 0.426689 -1.000568
2010-05-25 07:46:35 51°14.439 2°55.115 20.7218 0.081289 0.426221 -1.035392
2010-05-25 07:47:35 51°14.607 2°54.928 20.896 0.081289 0.426312 -1.000568
2010-05-25 07:48:35 51°14.776 2°54.706 20.7926 0.081289 0.426474 -1.035392
2010-05-25 07:49:35 51°14.959 2°54.515 20.8039 0.081289 0.4265 -1.035392
2010-05-25 07:50:35 51°15.135 2°54.309 20.8177 0.081185 0.426078 -1.035392
2010-05-25 07:51:35 51°15.303 2°54.083 20.7758 0.081185 0.426311 -1.035392
2010-05-25 07:52:35 51°15.472 2°53.861 20.7283 0.081081 0.425979 -1.035392
2010-05-25 07:53:35 51°15.643 2°53.643 20.7422 0.081081 0.426187 -1.035392
2010-05-25 07:54:35 51°15.823 2°53.449 20.7075 0.080977 0.425829 -1.000568
2010-05-25 07:55:35 51°16.011 2°53.276 20.7468 0.080977 0.426044 -1.035392
2010-05-25 07:56:35 51°16.194 2°53.095 20.7563 0.080873 0.425685 -1.000568
2010-05-25 07:57:35 51°16.373 2°52.899 20.7697 0.080873 0.4259 -1.000568
2010-05-25 07:58:35 51°16.544 2°52.688 20.8136 0.080769 0.425554 -1.035392
2010-05-25 07:59:35 51°16.71 2°52.466 20.7975 0.080769 0.425769 -1.035392
2010-05-25 08:00:35 51°16.876 2°52.248 20.7979 0.080769 0.425991 -1.000568
2010-05-25 08:01:35 51°17.065 2°52.097 20.8169 0.080665 0.425651 -1.000568
2010-05-25 08:02:35 51°17.268 2°52.011 20.8305 0.080561 0.425298 -1.000568
2010-05-25 08:03:35 51°17.47 2°51.912 20.8452 0.080561 0.425514 -1.070216
2010-05-25 08:04:35 51°17.667 2°51.783 20.8547 0.080457 0.425049 -1.035392
2010-05-25 08:05:35 51°17.87 2°51.687 20.895 0.080353 0.424768 -1.035392
2010-05-25 08:06:35 51°18.079 2°51.626 20.8983 0.080353 0.424741 -1.000568
2010-05-25 08:07:35 51°18.29 2°51.588 20.9039 0.080249 0.424081 -1.000568
2010-05-25 08:08:35 51°18.501 2°51.556 20.9173 0.080249 0.424283 -1.000568
2010-05-25 08:09:35 51°18.698 2°51.526 20.9523 0.080145 0.423851 -1.035392
2010-05-25 08:10:35 51°18.892 2°51.496 20.9687 0.080145 0.424164 -1.000568
2010-05-25 08:11:35 51°19.086 2°51.467 20.9919 0.080041 0.423796 -1.000568
2010-05-25 08:12:35 51°19.282 2°51.442 21.01 0.080041 0.424038 -1.035392
2010-05-25 08:13:35 51°19.48 2°51.418 21.0158 0.079937 0.423611 -1.035392
2010-05-25 08:14:35 51°19.678 2°51.394 21.0346 0.079937 0.423696 -1.035392
2010-05-25 08:15:35 51°19.874 2°51.368 21.0388 0.079937 0.42386 -1.035392
2010-05-25 08:16:35 51°20.069 2°51.343 21.0538 0.079833 0.423452 -1.035392
2010-05-25 08:17:35 51°20.263 2°51.32 21.0739 0.079833 0.423609 -1.035392
2010-05-25 08:18:35 51°20.458 2°51.294 21.08 0.079728 0.423188 -1.035392
2010-05-25 08:19:35 51°20.653 2°51.268 21.0926 0.079728 0.423319 -1.000568
2010-05-25 08:20:35 51°20.85 2°51.242 21.0977 0.079729 0.423476 -1.000568
2010-05-25 08:21:35 51°21.047 2°51.216 21.1137 0.079624 0.423075 -1.035392
2010-05-25 08:22:35 51°21.245 2°51.19 21.123 0.079624 0.423225 -1.035392
2010-05-25 08:23:35 51°21.443 2°51.159 21.1283 0.079624 0.423376 -1.035392
2010-05-25 08:24:35 51°21.641 2°51.132 21.1395 0.07952 0.422941 -1.035392
2010-05-25 08:25:35 51°21.839 2°51.108 21.1581 0.07952 0.423092 -1.035392
2010-05-25 08:26:35 51°22.038 2°51.077 21.1563 0.07952 0.423243 -1.035392
2010-05-25 08:27:35 51°22.236 2°51.046 21.1606 0.079416 0.422814 -1.035392
2010-05-25 08:28:35 51°22.436 2°51.015 21.1725 0.079416 0.422992 -1.000568
2010-05-25 08:29:35 51°22.637 2°50.986 21.1937 0.079416 0.423169 -1.000568
2010-05-25 08:30:35 51°22.84 2°50.966 21.2029 0.079312 0.422766 -1.000568
2010-05-25 08:31:35 51°23.04 2°50.942 21.2062 0.079312 0.42295 -1.035392
2010-05-25 08:32:35 51°23.237 2°50.92 21.2007 0.079208 0.42254 -1.000568
2010-05-25 08:33:35 51°23.432 2°50.896 21.2148 0.079208 0.422698 -1.000568
2010-05-25 08:34:35 51°23.627 2°50.871 21.2268 0.079208 0.422863 -1.035392
2010-05-25 08:35:35 51°23.823 2°50.845 21.2273 0.079104 0.422453 -0.965744
2010-05-25 08:36:35 51°24.021 2°50.818 21.2433 0.079104 0.422624 -1.000568
2010-05-25 08:37:35 51°24.219 2°50.791 21.2649 0.079104 0.422789 -1.000568
2010-05-25 08:38:35 51°24.418 2°50.765 21.2673 0.079 0.422365 -1.000568
2010-05-25 08:39:35 51°24.616 2°50.737 21.2874 0.079 0.422516 -1.000568
2010-05-25 08:40:35 51°24.816 2°50.709 21.289 0.079 0.422668 -1.035392
2010-05-25 08:41:35 51°25.017 2°50.686 21.2971 0.078896 0.422251 -1.035392
2010-05-25 08:42:35 51°25.219 2°50.665 21.3031 0.078896 0.422396 -1.035392
2010-05-25 08:43:35 51°25.421 2°50.645 21.3204 0.078896 0.422541 -1.000568
2010-05-25 08:44:35 51°25.623 2°50.628 21.3249 0.078792 0.422117 -1.000568
2010-05-25 08:45:35 51°25.826 2°50.611 21.306 0.078792 0.422255 -1.035392
2010-05-25 08:46:35 51°26.03 2°50.597 21.3424 0.078792 0.422401 -1.070216
2010-05-25 08:47:35 51°26.234 2°50.574 21.3436 0.078792 0.42256 -1.035392
2010-05-25 08:48:35 51°26.435 2°50.548 21.3564 0.078688 0.422141 -1.000568
2010-05-25 08:49:35 51°26.636 2°50.523 21.358 0.078688 0.422307 -1.035392
2010-05-25 08:50:35 51°26.836 2°50.495 21.3556 0.078688 0.422466 -1.000568
2010-05-25 08:51:35 51°27.036 2°50.471 21.3697 0.078688 0.422632 -0.965744
2010-05-25 08:52:35 51°27.236 2°50.443 21.3838 0.078584 0.422213 -1.000568
2010-05-25 08:53:35 51°27.437 2°50.416 21.3882 0.078584 0.422365 -1.000568
2010-05-25 08:54:35 51°27.64 2°50.387 21.3897 0.078584 0.422531 -1.035392
2010-05-25 08:55:35 51°27.844 2°50.359 21.4018 0.078584 0.422698 -1.000568
2010-05-25 08:56:35 51°28.05 2°50.335 21.4048 0.078584 0.422864 -1.035392
2010-05-25 08:57:35 51°28.258 2°50.329 21.406 0.078584 0.423017 -1.000568
2010-05-25 08:58:35 51°28.466 2°50.327 21.4102 0.07848 0.422604 -1.000568
2010-05-25 08:59:35 51°28.672 2°50.336 21.424 0.078584 0.423331 -1.000568
2010-05-25 09:00:35 51°28.878 2°50.341 21.4009 0.07848 0.422904 -1.035392
2010-05-25 09:01:35 51°29.084 2°50.348 21.4119 0.07848 0.423064 -1.000568
2010-05-25 09:02:35 51°29.286 2°50.419 21.414 0.07848 0.423245 -1.035392
2010-05-25 09:03:35 51°29.472 2°50.582 21.4221 0.07848 0.423425 -1.035392
2010-05-25 09:04:35 51°29.597 2°50.861 21.4364 0.07848 0.423566 -1.035392
2010-05-25 09:05:35 51°29.66 2°51.194 21.4547 0.07848 0.423733 -1.000568
2010-05-25 09:06:35 51°29.741 2°51.515 21.4613 0.07848 0.423874 -1.035392
2010-05-25 09:07:35 51°29.843 2°51.821 21.4589 0.07848 0.423995 -1.070216
2010-05-25 09:08:35 51°29.936 2°52.134 21.4755 0.07848 0.424122 -1.035392
2010-05-25 09:09:35 51°30.023 2°52.453 21.4831 0.07848 0.424243 -0.965744
2010-05-25 09:10:35 51°30.11 2°52.77 21.4774 0.078584 0.424954 -1.035392
2010-05-25 09:11:35 51°30.18 2°53.063 21.4904 0.078584 0.425088 -1.000568
2010-05-25 09:12:35 51°30.239 2°53.35 21.5081 0.07848 0.424634 -1.000568
2010-05-25 09:13:35 51°30.304 2°53.648 21.5002 0.078584 0.425338 -1.000568
2010-05-25 09:14:35 51°30.373 2°53.961 21.5079 0.07848 0.424876 -1.035392
2010-05-25 09:15:35 51°30.44 2°54.265 21.515 0.07848 0.424978 -1.000568
2010-05-25 09:16:35 51°30.504 2°54.56 21.5112 0.078584 0.425662 -1.035392
2010-05-25 09:17:35 51°30.57 2°54.855 21.5218 0.078584 0.42577 -1.000568
2010-05-25 09:18:35 51°30.636 2°55.149 21.5283 0.07848 0.425288 -0.965744
2010-05-25 09:19:35 51°30.703 2°55.443 21.5328 0.07848 0.425397 -1.000568
2010-05-25 09:20:35 51°30.771 2°55.738 21.5257 0.07848 0.425505 -1.000568
2010-05-25 09:21:35 51°30.84 2°56.034 21.5295 0.078584 0.42619 -1.035392
2010-05-25 09:22:35 51°30.908 2°56.33 21.5416 0.07848 0.425708 -1.000568
2010-05-25 09:23:35 51°30.978 2°56.625 21.5525 0.07848 0.42581 -1.035392
2010-05-25 09:24:35 51°31.061 2°56.911 21.5599 0.07848 0.425905 -1.035392
2010-05-25 09:25:35 51°31.161 2°57.182 21.5345 0.07848 0.426006 -1.035392
2010-05-25 09:26:35 51°31.296 2°57.408 21.5466 0.07848 0.426101 -1.000568
2010-05-25 09:27:35 51°31.433 2°57.629 21.5662 0.07848 0.426224 -1.000568
2010-05-25 09:28:35 51°31.568 2°57.854 21.5596 0.07848 0.426326 -1.000568
2010-05-25 09:29:35 51°31.703 2°58.08 21.5644 0.07848 0.426428 -1.035392
2010-05-25 09:30:35 51°31.837 2°58.307 21.5753 0.07848 0.426537 -1.035392
2010-05-25 09:31:35 51°31.971 2°58.533 21.5697 0.07848 0.426646 -1.000568
2010-05-25 09:32:35 51°32.106 2°58.76 21.5841 0.07848 0.426748 -1.035392
2010-05-25 09:33:35 51°32.241 2°58.989 21.5882 0.07848 0.426857 -1.000568
2010-05-25 09:34:35 51°32.376 2°59.219 21.5816 0.078376 0.426366 -1.000568
2010-05-25 09:35:35 51°32.511 2°59.448 21.6046 0.078376 0.426482 -1.035392
2010-05-25 09:36:35 51°32.646 2°59.675 21.5971 0.078376 0.426591 -1.000568
2010-05-25 09:37:35 51°32.808 2°59.806 21.6031 0.078376 0.426707 -1.000568
2010-05-25 09:38:35 51°32.958 2°59.697 21.5969 0.078376 0.42683 -1.000568
2010-05-25 09:39:35 51°33.041 2°59.446 21.552 0.078376 0.426919 -1.035392
2010-05-25 09:40:35 51°33.133 2°59.187 21.5552 0.078376 0.427104 -1.035392
2010-05-25 09:41:35 51°33.233 2°58.928 21.5832 0.078376 0.427323 -1.000568
2010-05-25 09:42:35 51°33.339 2°58.651 21.5877 0.078272 0.426961 -1.000568
2010-05-25 09:43:35 51°33.447 2°58.374 21.575 0.078272 0.427201 -1.000568
2010-05-25 09:44:35 51°33.554 2°58.095 21.6022 0.078272 0.427462 -1.000568
2010-05-25 09:45:35 51°33.664 2°57.816 21.612 0.078168 0.427148 -1.035392
2010-05-25 09:46:35 51°33.773 2°57.534 21.594 0.078064 0.426827 -1.000568
2010-05-25 09:47:35 51°33.884 2°57.252 21.609 0.078064 0.427068 -1.000568
2010-05-25 09:48:35 51°33.996 2°56.967 21.6054 0.07796 0.426746 -1.035392
2010-05-25 09:49:35 51°34.106 2°56.686 21.6168 0.07796 0.427029 -1.000568
2010-05-25 09:50:35 51°34.213 2°56.418 21.6242 0.077856 0.426721 -1.035392
2010-05-25 09:51:35 51°34.32 2°56.152 21.6202 0.077752 0.426426 -1.035392
2010-05-25 09:52:35 51°34.404 2°55.875 21.6229 0.077752 0.426764 -1.035392
2010-05-25 09:53:35 51°34.365 2°55.585 21.6412 0.077648 0.426456 -1.035392
2010-05-25 09:54:35 51°34.25 2°55.341 21.627 0.077544 0.426161 -1.000568
2010-05-25 09:55:35 51°34.118 2°55.12 21.6543 0.07744 0.425845 -1.035392
2010-05-25 09:56:35 51°33.988 2°54.896 21.6499 0.07744 0.426066 -1.035392
2010-05-25 09:57:35 51°33.859 2°54.671 21.6225 0.077336 0.425632 -1.000568
2010-05-25 09:58:35 51°33.728 2°54.448 21.6565 0.077336 0.42575 -1.000568
2010-05-25 09:59:35 51°33.597 2°54.222 21.6651 0.077232 0.425295 -1.000568
2010-05-25 10:00:35 51°33.47 2°53.992 21.6855 0.077232 0.425378 -1.000568
2010-05-25 10:01:35 51°33.354 2°53.75 21.6692 0.077232 0.425447 -1.000568
2010-05-25 10:02:35 51°33.242 2°53.5 21.7007 0.077128 0.424944 -1.000568
2010-05-25 10:03:35 51°33.132 2°53.247 21.6438 0.077128 0.425033 -1.000568
2010-05-25 10:04:35 51°33.026 2°52.993 21.6801 0.077128 0.425123 -1.035392
2010-05-25 10:05:35 51°32.916 2°52.74 21.6967 0.077128 0.425234 -1.035392
2010-05-25 10:06:35 51°32.815 2°52.482 21.7058 0.077024 0.424751 -1.035392
2010-05-25 10:07:35 51°32.715 2°52.219 21.6756 0.077024 0.424875 -1.000568
2010-05-25 10:08:35 51°32.614 2°51.959 21.7042 0.077024 0.425 -1.000568
2010-05-25 10:09:35 51°32.515 2°51.7 21.705 0.077024 0.425124 -1.000568
2010-05-25 10:10:35 51°32.414 2°51.442 21.6834 0.076919 0.424654 -1.000568
2010-05-25 10:11:35 51°32.313 2°51.187 21.7064 0.076919 0.424779 -1.035392
2010-05-25 10:12:35 51°32.212 2°50.931 21.7206 0.076919 0.424918 -1.035392
2010-05-25 10:13:35 51°32.111 2°50.676 21.7367 0.076815 0.424447 -1.000568
2010-05-25 10:14:35 51°32.011 2°50.421 21.7025 0.076815 0.424572 -1.035392
2010-05-25 10:15:35 51°31.909 2°50.17 21.727 0.076815 0.424704 -1.000568
2010-05-25 10:16:35 51°31.809 2°49.918 21.7529 0.076815 0.424829 -1.035392
2010-05-25 10:17:35 51°31.712 2°49.665 21.7286 0.076815 0.424954 -1.000568
2010-05-25 10:18:35 51°31.61 2°49.415 21.7384 0.076711 0.424483 -1.000568
2010-05-25 10:19:35 51°31.512 2°49.164 21.7368 0.076711 0.424601 -1.000568
2010-05-25 10:20:35 51°31.411 2°48.914 21.7559 0.076711 0.424726 -1.000568
2010-05-25 10:21:35 51°31.313 2°48.66 21.7522 0.076607 0.424261 -1.000568
2010-05-25 10:22:35 51°31.213 2°48.409 21.7675 0.076607 0.424393 -0.965744
2010-05-25 10:23:35 51°31.111 2°48.158 21.7515 0.076607 0.424512 -1.000568
2010-05-25 10:24:35 51°31.011 2°47.905 21.7814 0.076607 0.424623 -1.000568
2010-05-25 10:25:35 51°30.91 2°47.651 21.7673 0.076607 0.424721 -1.035392
2010-05-25 10:26:35 51°30.836 2°47.378 21.7106 0.076503 0.424228 -1.000568
2010-05-25 10:27:35 51°30.847 2°47.083 21.7149 0.076503 0.424339 -1.035392
2010-05-25 10:28:35 51°30.967 2°46.831 21.709 0.076503 0.424443 -1.000568
2010-05-25 10:29:35 51°31.154 2°46.697 21.7248 0.076399 0.424013 -1.035392
2010-05-25 10:30:35 51°31.366 2°46.698 21.76 0.076399 0.424208 -1.035392
2010-05-25 10:31:35 51°31.571 2°46.762 21.7799 0.076399 0.424452 -1.035392
2010-05-25 10:32:35 51°31.769 2°46.803 21.781 0.076295 0.424007 -1.035392
2010-05-25 10:33:35 51°31.968 2°46.827 21.7915 0.076295 0.424167 -1.035392
2010-05-25 10:34:35 51°32.167 2°46.841 21.776 0.076295 0.424307 -1.000568
2010-05-25 10:35:35 51°32.368 2°46.856 21.8038 0.076191 0.423834 -1.000568
2010-05-25 10:36:35 51°32.569 2°46.874 21.8044 0.076191 0.423959 -0.965744
2010-05-25 10:37:35 51°32.769 2°46.889 21.798 0.076191 0.424078 -1.000568
2010-05-25 10:38:35 51°32.969 2°46.906 21.8071 0.076191 0.424197 -1.000568
2010-05-25 10:39:35 51°33.169 2°46.923 21.8218 0.076087 0.423702 -1.000568
2010-05-25 10:40:35 51°33.369 2°46.942 21.8044 0.076087 0.423821 -1.035392
2010-05-25 10:41:35 51°33.565 2°46.961 21.8286 0.076087 0.42394 -1.035392
2010-05-25 10:42:35 51°33.762 2°46.975 21.8364 0.076087 0.424052 -1.000568
2010-05-25 10:43:35 51°33.96 2°46.991 21.8314 0.075983 0.42357 -1.035392
2010-05-25 10:44:35 51°34.155 2°47.006 21.828 0.075983 0.423675 -1.035392
2010-05-25 10:45:35 51°34.351 2°47.023 21.8467 0.075983 0.423773 -1.035392
2010-05-25 10:46:35 51°34.548 2°47.036 21.8628 0.075983 0.423885 -1.000568
2010-05-25 10:47:35 51°34.746 2°47.047 21.86 0.075983 0.423998 -1.035392
2010-05-25 10:48:35 51°34.946 2°47.059 21.8642 0.075879 0.423495 -1.000568
2010-05-25 10:49:35 51°35.146 2°47.073 21.87 0.075879 0.423635 -1.035392
2010-05-25 10:50:35 51°35.346 2°47.097 21.8654 0.075879 0.423768 -1.035392
2010-05-25 10:51:35 51°35.533 2°47.213 21.8867 0.075879 0.423894 -1.035392
2010-05-25 10:52:35 51°35.71 2°47.369 21.8905 0.075879 0.424035 -1.035392
2010-05-25 10:53:35 51°35.888 2°47.508 21.8883 0.075775 0.423559 -1.000568
2010-05-25 10:54:35 51°36.065 2°47.641 21.9027 0.075775 0.423665 -1.035392
2010-05-25 10:55:35 51°36.24 2°47.776 21.9048 0.075775 0.423777 -1.035392
2010-05-25 10:56:35 51°36.416 2°47.909 21.8976 0.075775 0.423876 -1.000568
2010-05-25 10:57:35 51°36.591 2°48.041 21.9117 0.075671 0.423385 -1.000568
2010-05-25 10:58:35 51°36.767 2°48.172 21.9169 0.075775 0.424066 -1.035392
2010-05-25 10:59:35 51°36.943 2°48.304 21.91 0.075671 0.423561 -1.000568
2010-05-25 11:00:35 51°37.121 2°48.435 21.9271 0.075671 0.423639 -1.000568
2010-05-25 11:01:35 51°37.297 2°48.565 21.9328 0.075671 0.423744 -1.035392
2010-05-25 11:02:35 51°37.472 2°48.701 21.9382 0.075671 0.423836 -1.000568
2010-05-25 11:03:35 51°37.647 2°48.833 21.924 0.075671 0.423934 -1.035392
2010-05-25 11:04:35 51°37.823 2°48.964 21.9405 0.075567 0.423429 -1.035392
2010-05-25 11:05:35 51°37.998 2°49.098 21.941 0.075567 0.423521 -1.035392
2010-05-25 11:06:35 51°38.172 2°49.23 21.9313 0.075567 0.42362 -1.035392
2010-05-25 11:07:35 51°38.347 2°49.361 21.9437 0.075567 0.423704 -1.035392
2010-05-25 11:08:35 51°38.522 2°49.491 21.9555 0.075567 0.423803 -1.035392
2010-05-25 11:09:35 51°38.697 2°49.622 21.9499 0.075567 0.423881 -1.000568
2010-05-25 11:10:35 51°38.872 2°49.75 21.9513 0.075463 0.423361 -1.000568
2010-05-25 11:11:35 51°39.05 2°49.877 21.9756 0.075463 0.423425 -1.035392
2010-05-25 11:12:35 51°39.227 2°50.006 21.9705 0.075463 0.423509 -1.035392
2010-05-25 11:13:35 51°39.404 2°50.132 21.9732 0.075463 0.423594 -1.035392
2010-05-25 11:14:35 51°39.577 2°50.275 21.973 0.075463 0.423672 -1.000568
2010-05-25 11:15:35 51°39.742 2°50.441 21.9717 0.075463 0.423764 -1.000568
2010-05-25 11:16:35 51°39.908 2°50.605 21.9731 0.075359 0.423243 -1.000568
2010-05-25 11:17:35 51°40.053 2°50.807 21.9849 0.075359 0.423335 -1.035392
2010-05-25 11:18:35 51°40.165 2°51.059 21.9763 0.075359 0.423434 -1.035392
2010-05-25 11:19:35 51°40.181 2°51.349 21.9626 0.075359 0.423519 -1.000568
2010-05-25 11:20:35 51°40.105 2°51.598 21.9881 0.075359 0.423618 -1.035392
2010-05-25 11:21:35 51°39.985 2°51.795 22.0036 0.075359 0.423703 -1.000568
2010-05-25 11:22:35 51°39.86 2°51.983 21.981 0.075359 0.423859 -1.035392
2010-05-25 11:23:35 51°39.737 2°52.176 21.9801 0.075255 0.423253 -1.000568
2010-05-25 11:24:35 51°39.616 2°52.373 21.9982 0.075255 0.423444 -1.000568
2010-05-25 11:25:35 51°39.494 2°52.57 22.0065 0.075255 0.423614 -1.070216
2010-05-25 11:26:35 51°39.369 2°52.77 21.9773 0.075255 0.423756 -1.035392
2010-05-25 11:27:35 51°39.236 2°52.98 21.9741 0.075255 0.423898 -1.000568
2010-05-25 11:28:35 51°39.1 2°53.195 21.9879 0.075151 0.423419 -1.035392
2010-05-25 11:29:35 51°38.965 2°53.41 21.9851 0.075151 0.423525 -1.000568
2010-05-25 11:30:35 51°38.83 2°53.63 21.9963 0.075151 0.423639 -1.035392
2010-05-25 11:31:35 51°38.696 2°53.848 22.0124 0.075151 0.423738 -1.000568
2010-05-25 11:32:35 51°38.561 2°54.067 22.0094 0.075047 0.423216 -1.000568
2010-05-25 11:33:35 51°38.424 2°54.283 21.999 0.075047 0.42333 -1.035392
2010-05-25 11:34:35 51°38.286 2°54.501 21.9955 0.075047 0.423465 -1.000568
2010-05-25 11:35:35 51°38.147 2°54.717 21.9997 0.075047 0.423607 -1.035392
2010-05-25 11:36:35 51°38.006 2°54.929 22.0032 0.075047 0.423742 -1.000568
2010-05-25 11:37:35 51°37.844 2°55.08 21.9923 0.074943 0.423276 -1.035392
2010-05-25 11:38:35 51°37.663 2°55.107 21.9989 0.074943 0.42344 -1.035392
2010-05-25 11:39:35 51°37.486 2°55.064 21.9878 0.074943 0.423547 -1.000568
2010-05-25 11:40:35 51°37.355 2°54.888 22.0072 0.074943 0.423675 -1.000568
2010-05-25 11:41:35 51°37.27 2°54.631 22.0115 0.074943 0.423832 -1.000568
2010-05-25 11:42:35 51°37.171 2°54.384 22.0243 0.074839 0.42333 -1.035392
2010-05-25 11:43:35 51°37.061 2°54.15 22.0089 0.074839 0.423465 -1.035392
2010-05-25 11:44:35 51°36.952 2°53.919 22.0375 0.074839 0.423615 -1.035392
2010-05-25 11:45:35 51°36.843 2°53.692 22.02 0.074735 0.423112 -1.035392
2010-05-25 11:46:35 51°36.732 2°53.459 22.0315 0.074735 0.423234 -1.000568
2010-05-25 11:47:35 51°36.62 2°53.23 22.0305 0.074735 0.423384 -1.035392
2010-05-25 11:48:35 51°36.509 2°53.003 22.0375 0.074735 0.423484 -1.035392
2010-05-25 11:49:35 51°36.4 2°52.773 22.0334 0.074735 0.423577 -1.035392
2010-05-25 11:50:35 51°36.289 2°52.544 22.0677 0.074735 0.423684 -1.035392
2010-05-25 11:51:35 51°36.178 2°52.314 22.0667 0.074735 0.423763 -1.035392
2010-05-25 11:52:34 51°36.072 2°52.092 22.0583 0.074735 0.423856 -1.035392
2010-05-25 11:53:35 51°35.964 2°51.862 22.0664 0.074631 0.423324 -1.000568
2010-05-25 11:54:35 51°35.855 2°51.634 22.0697 0.074631 0.423424 -1.000568
2010-05-25 11:55:35 51°35.748 2°51.402 22.0773 0.074631 0.423488 -1.000568
2010-05-25 11:56:35 51°35.636 2°51.17 22.0456 0.074631 0.423553 -1.000568
2010-05-25 11:57:34 51°35.508 2°50.978 22.0732 0.074631 0.423632 -1.035392
2010-05-25 11:58:35 51°35.346 2°50.846 22.0953 0.074631 0.423739 -1.000568
2010-05-25 11:59:35 51°35.172 2°50.846 22.0986 0.074631 0.423797 -1.000568
2010-05-25 12:00:35 51°35.012 2°51 22.0636 0.074631 0.423847 -1.000568
2010-05-25 12:01:35 51°34.866 2°51.21 22.092 0.074631 0.423919 -1.035392
2010-05-25 12:02:35 51°34.715 2°51.415 22.064 0.074527 0.423421 -1.000568
2010-05-25 12:03:35 51°34.561 2°51.613 22.0943 0.074527 0.423558 -1.070216
2010-05-25 12:04:35 51°34.408 2°51.807 22.0885 0.074527 0.423658 -1.035392
2010-05-25 12:05:35 51°34.258 2°52.008 22.0691 0.074527 0.423781 -1.000568
2010-05-25 12:06:34 51°34.109 2°52.205 22.0739 0.074527 0.423903 -1.035392
2010-05-25 12:07:35 51°33.958 2°52.413 22.0741 0.074527 0.424025 -1.035392
2010-05-25 12:08:34 51°33.828 2°52.641 22.1029 0.074527 0.424176 -1.035392
2010-05-25 12:09:35 51°33.745 2°52.937 22.0898 0.074423 0.423649 -1.000568
2010-05-25 12:10:35 51°33.75 2°53.265 22.0802 0.074423 0.423779 -1.035392
2010-05-25 12:11:35 51°33.842 2°53.567 22.0857 0.074423 0.423902 -1.035392
2010-05-25 12:12:35 51°33.954 2°53.831 22.0802 0.074423 0.424031 -1.000568
2010-05-25 12:13:35 51°34.066 2°54.089 22.0921 0.074423 0.424147 -1.000568
2010-05-25 12:14:35 51°34.183 2°54.344 22.0941 0.074423 0.424248 -1.035392
2010-05-25 12:15:34 51°34.297 2°54.595 22.1027 0.074319 0.423727 -1.035392
2010-05-25 12:16:35 51°34.413 2°54.855 22.103 0.074319 0.423814 -1.035392
2010-05-25 12:17:35 51°34.527 2°55.112 22.1052 0.074319 0.423893 -1.035392
2010-05-25 12:18:35 51°34.641 2°55.371 22.105 0.074319 0.423973 -1.000568
2010-05-25 12:19:34 51°34.752 2°55.625 22.1052 0.074319 0.424067 -1.035392
2010-05-25 12:20:35 51°34.865 2°55.889 22.1215 0.074319 0.424139 -1.035392
2010-05-25 12:21:35 51°34.977 2°56.146 22.1209 0.074319 0.424219 -1.000568
2010-05-25 12:22:35 51°35.09 2°56.403 22.0991 0.074215 0.423683 -1.035392
2010-05-25 12:23:35 51°35.202 2°56.659 22.1056 0.074215 0.423762 -1.035392
2010-05-25 12:24:35 51°35.312 2°56.915 22.107 0.074215 0.423842 -1.000568
2010-05-25 12:25:35 51°35.422 2°57.166 22.1128 0.074215 0.423907 -1.000568
2010-05-25 12:26:34 51°35.529 2°57.413 22.1148 0.074215 0.423979 -1.000568
2010-05-25 12:27:35 51°35.638 2°57.671 22.1144 0.074215 0.424052 -1.035392
2010-05-25 12:28:35 51°35.732 2°57.933 22.1167 0.074215 0.424103 -1.000568
2010-05-25 12:29:35 51°35.763 2°58.224 21.5186 0.07411 0.423545 -1.000568
2010-05-25 12:30:35 51°35.734 2°58.505 21.6046 0.07411 0.423588 -1.035392
2010-05-25 12:31:35 51°35.622 2°58.712 21.626 0.07411 0.42366 -1.000568
2010-05-25 12:32:35 51°35.468 2°58.828 21.5714 0.07411 0.423711 -1.070216
2010-05-25 12:33:35 51°35.303 2°58.9 21.5795 0.07411 0.423827 -1.000568
2010-05-25 12:34:35 51°35.143 2°58.991 21.6795 0.07411 0.423878 -1.035392
2010-05-25 12:35:35 51°34.982 2°59.081 21.5538 0.07411 0.424001 -1.035392
2010-05-25 12:36:35 51°34.818 2°59.168 21.7001 0.07411 0.424081 -1.000568
2010-05-25 12:37:35 51°34.656 2°59.255 21.7322 0.074006 0.423587 -1.035392
2010-05-25 12:38:35 51°34.493 2°59.337 21.8099 0.074006 0.423696 -1.000568
2010-05-25 12:39:35 51°34.331 2°59.419 21.7659 0.074006 0.423819 -1.035392
2010-05-25 12:40:35 51°34.161 2°59.51 21.6777 0.074006 0.423965 -1.000568
2010-05-25 12:41:35 51°33.98 2°59.601 21.7264 0.074006 0.424066 -1.035392
2010-05-25 12:42:35 51°33.795 2°59.692 21.7413 0.073902 0.42358 -1.035392
2010-05-25 12:43:35 51°33.61 2°59.764 21.7948 0.073902 0.423703 -1.000568
2010-05-25 12:44:35 51°33.426 2°59.778 21.6034 0.073902 0.423812 -1.000568
2010-05-25 12:45:35 51°33.242 2°59.782 21.7919 0.073902 0.423929 -1.000568
2010-05-25 12:46:35 51°33.054 2°59.787 21.7927 0.073798 0.423412 -1.000568
2010-05-25 12:47:35 51°32.867 2°59.796 21.749 0.073798 0.423536 -1.000568
2010-05-25 12:48:35 51°32.677 2°59.805 21.7112 0.073798 0.423703 -1.035392
2010-05-25 12:49:35 51°32.487 2°59.813 21.7019 0.073798 0.423776 -1.000568
2010-05-25 12:50:34 51°32.302 2°59.808 21.7518 0.073694 0.423288 -1.000568
2010-05-25 12:51:34 51°32.116 2°59.752 21.7647 0.073694 0.423376 -1.035392
2010-05-25 12:52:35 51°31.928 2°59.677 21.7369 0.073694 0.42347 -1.035392
2010-05-25 12:53:34 51°31.751 2°59.589 21.7929 0.073694 0.423594 -1.035392
2010-05-25 12:54:35 51°31.569 2°59.492 21.7707 0.073694 0.423682 -1.035392
2010-05-25 12:55:34 51°31.394 2°59.371 21.711 0.07359 0.423142 -1.035392
2010-05-25 12:56:35 51°31.218 2°59.223 21.7184 0.07359 0.423215 -1.035392
2010-05-25 12:57:34 51°31.043 2°59.086 21.7705 0.07359 0.423295 -1.000568
2010-05-25 12:58:35 51°30.863 2°58.964 21.6813 0.07359 0.423383 -1.035392
2010-05-25 12:59:35 51°30.675 2°58.874 21.6961 0.07359 0.423507 -1.035392
2010-05-25 13:00:34 51°30.492 2°58.788 21.7262 0.07359 0.423558 -1.070216
2010-05-25 13:01:35 51°30.298 2°58.708 21.7368 0.07359 0.423638 -1.035392
2010-05-25 13:02:35 51°30.105 2°58.647 21.6473 0.073486 0.423127 -1.035392
2010-05-25 13:03:35 51°29.914 2°58.583 21.5453 0.073486 0.423135 -1.000568
2010-05-25 13:04:35 51°29.727 2°58.508 21.6483 0.073486 0.423222 -1.000568
2010-05-25 13:05:35 51°29.541 2°58.428 21.5058 0.073486 0.423354 -1.035392
2010-05-25 13:06:35 51°29.355 2°58.336 21.6473 0.073486 0.423361 -1.000568
2010-05-25 13:07:35 51°29.167 2°58.248 21.6259 0.073486 0.423485 -1.000568
2010-05-25 13:08:35 51°28.983 2°58.156 21.5315 0.073382 0.422952 -1.070216
2010-05-25 13:09:34 51°28.798 2°58.074 21.602 0.073382 0.423069 -1.000568
2010-05-25 13:10:35 51°28.61 2°57.98 21.5379 0.073382 0.423142 -1.000568
2010-05-25 13:11:34 51°28.422 2°57.892 21.5391 0.073382 0.423215 -1.000568
2010-05-25 13:12:35 51°28.231 2°57.791 21.641 0.073382 0.423259 -1.000568
2010-05-25 13:13:35 51°28.039 2°57.692 21.6602 0.073382 0.423362 -1.000568
2010-05-25 13:14:35 51°27.849 2°57.598 21.5402 0.073382 0.423406 -1.000568
2010-05-25 13:15:34 51°27.662 2°57.5 21.6006 0.073278 0.422937 -1.035392
2010-05-25 13:16:35 51°27.467 2°57.4 21.7055 0.073278 0.422937 -1.035392
2010-05-25 13:17:35 51°27.275 2°57.298 21.6508 0.073278 0.422981 -1.000568
2010-05-25 13:18:35 51°27.081 2°57.199 21.7217 0.073278 0.423091 -1.035392
2010-05-25 13:19:35 51°26.888 2°57.095 21.6841 0.073278 0.423157 -1.035392
2010-05-25 13:20:35 51°26.697 2°56.994 21.5932 0.073278 0.423274 -1.035392
2010-05-25 13:21:35 51°26.507 2°56.893 21.646 0.073278 0.423385 -1.000568
2010-05-25 13:22:35 51°26.318 2°56.788 21.7021 0.073278 0.423465 -1.035392
2010-05-25 13:23:35 51°26.132 2°56.689 21.687 0.073174 0.422916 -1.000568
2010-05-25 13:24:34 51°25.945 2°56.592 21.6652 0.073174 0.422996 -1.035392
2010-05-25 13:25:34 51°25.756 2°56.486 21.6693 0.073174 0.423092 -1.035392
2010-05-25 13:26:35 51°25.568 2°56.377 21.6506 0.073174 0.423107 -1.000568
2010-05-25 13:27:34 51°25.381 2°56.264 21.7014 0.073174 0.423165 -1.000568
2010-05-25 13:28:35 51°25.185 2°56.16 21.6627 0.073174 0.423283 -1.000568
2010-05-25 13:29:35 51°24.99 2°56.054 21.6495 0.073174 0.42332 -1.035392
2010-05-25 13:30:35 51°24.794 2°55.968 21.6905 0.073174 0.423378 -1.000568
2010-05-25 13:31:34 51°24.602 2°55.908 21.669 0.073174 0.4234 -1.000568
2010-05-25 13:32:35 51°24.4 2°55.848 21.6298 0.07307 0.422828 -1.035392
2010-05-25 13:33:34 51°24.202 2°55.783 21.5896 0.07307 0.422953 -1.035392
2010-05-25 13:34:34 51°24 2°55.722 21.6889 0.07307 0.423078 -1.035392
2010-05-25 13:35:34 51°23.801 2°55.655 21.6648 0.07307 0.423166 -1.035392
2010-05-25 13:36:35 51°23.598 2°55.572 21.6168 0.07307 0.423218 -1.000568
2010-05-25 13:37:19 51°9.973 2°58.082 21.1092 0.082017 0.427017 -1.000568
2010-05-25 13:37:49 51°23.357 2°55.464 21.7299 0.07307 0.423262 -1.035392
2010-05-25 13:38:49 51°23.158 2°55.377 21.7211 0.07307 0.423343 -1.035392
2010-05-25 13:39:49 51°22.953 2°55.283 21.7018 0.07307 0.423476 -1.035392
2010-05-25 13:40:49 51°22.756 2°55.169 21.7247 0.072966 0.422895 -1.000568
2010-05-25 13:41:49 51°22.561 2°55.045 21.7233 0.072966 0.423005 -1.035392
2010-05-25 13:42:49 51°22.365 2°54.922 21.7125 0.072966 0.423064 -1.035392
2010-05-25 13:43:49 51°22.172 2°54.799 21.7758 0.072966 0.423131 -1.035392
2010-05-25 13:44:49 51°21.979 2°54.679 21.7115 0.072966 0.423182 -1.035392
2010-05-25 13:45:49 51°21.785 2°54.563 21.7213 0.072966 0.423249 -1.000568
2010-05-25 13:46:49 51°21.591 2°54.451 21.6992 0.072966 0.423352 -1.035392
2010-05-25 13:47:49 51°21.397 2°54.342 21.7953 0.072966 0.42333 -1.000568
2010-05-25 13:48:49 51°21.199 2°54.23 21.7521 0.072966 0.423404 -1.000568
2010-05-25 13:49:49 51°21.001 2°54.117 21.741 0.072862 0.422881 -1.000568
2010-05-25 13:50:49 51°20.802 2°54 21.7689 0.072862 0.422926 -1.035392
2010-05-25 13:51:49 51°20.602 2°53.882 21.7786 0.072862 0.422985 -1.035392
2010-05-25 13:52:49 51°20.4 2°53.789 21.7955 0.072862 0.423066 -1.000568
2010-05-25 13:53:49 51°20.196 2°53.694 21.8141 0.072862 0.423088 -1.000568
2010-05-25 13:54:49 51°19.99 2°53.597 21.7986 0.072862 0.423162 -1.000568
2010-05-25 13:55:49 51°19.789 2°53.497 21.8018 0.072862 0.423206 -1.000568
2010-05-25 13:56:49 51°19.599 2°53.399 21.8116 0.072862 0.423243 -1.035392
2010-05-25 13:57:49 51°19.413 2°53.303 21.8254 0.072862 0.423317 -1.000568
2010-05-25 13:58:49 51°19.229 2°53.204 21.8311 0.072862 0.423369 -1.000568
2010-05-25 13:59:49 51°19.044 2°53.105 21.8374 0.072862 0.423465 -1.000568
2010-05-25 14:00:49 51°18.858 2°53.005 21.8455 0.072862 0.423494 -1.035392
2010-05-25 14:01:49 51°18.671 2°52.896 21.8375 0.072758 0.422905 -1.000568
2010-05-25 14:02:49 51°18.489 2°52.786 21.8526 0.072758 0.422986 -1.035392
2010-05-25 14:03:49 51°18.304 2°52.676 21.849 0.072758 0.423016 -1.000568
2010-05-25 14:04:49 51°18.121 2°52.564 21.8539 0.072758 0.42309 -1.000568
2010-05-25 14:05:49 51°17.937 2°52.458 21.8623 0.072758 0.423149 -1.000568
2010-05-25 14:06:49 51°17.752 2°52.358 21.8861 0.072758 0.423215 -1.035392
2010-05-25 14:07:49 51°17.564 2°52.272 21.883 0.072758 0.42326 -1.035392
2010-05-25 14:08:49 51°17.376 2°52.237 21.8953 0.072758 0.423326 -1.000568
2010-05-25 14:09:49 51°17.19 2°52.273 21.8969 0.072758 0.423378 -1.000568
2010-05-25 14:10:49 51°17.01 2°52.345 21.8775 0.072758 0.423445 -1.035392
2010-05-25 14:11:49 51°16.848 2°52.484 21.8918 0.072758 0.42346 -1.000568
2010-05-25 14:12:49 51°16.691 2°52.639 21.8921 0.072758 0.423534 -1.035392
2010-05-25 14:13:49 51°16.533 2°52.792 21.8986 0.072758 0.423601 -1.035392
2010-05-25 14:14:49 51°16.378 2°52.955 21.9171 0.072758 0.42366 -1.035392
2010-05-25 14:15:49 51°16.225 2°53.121 21.9187 0.072654 0.423099 -1.000568
2010-05-25 14:16:49 51°16.059 2°53.254 21.9306 0.072654 0.423181 -1.000568
2010-05-25 14:17:49 51°15.897 2°53.404 21.9475 0.072654 0.423233 -1.000568
2010-05-25 14:18:49 51°15.735 2°53.557 21.952 0.072654 0.423299 -1.000568
2010-05-25 14:19:49 51°15.574 2°53.713 21.9581 0.072654 0.423359 -1.035392
2010-05-25 14:20:49 51°15.429 2°53.893 21.9692 0.072654 0.423425 -1.000568
2010-05-25 14:21:49 51°15.282 2°54.071 21.9681 0.072654 0.423492 -1.035392
2010-05-25 14:22:49 51°15.135 2°54.252 21.9815 0.072654 0.423537 -1.000568
2010-05-25 14:23:49 51°14.985 2°54.43 21.9969 0.072654 0.423589 -1.000568
2010-05-25 14:24:49 51°14.829 2°54.604 22.0067 0.072654 0.423663 -1.000568
2010-05-25 14:25:49 51°14.679 2°54.786 22.0161 0.072654 0.423723 -1.000568
2010-05-25 14:26:49 51°14.515 2°54.947 22.0221 0.072654 0.423827 -1.000568
2010-05-25 14:27:49 51°14.367 2°55.125 22.0314 0.07255 0.423198 -1.035392
2010-05-25 14:28:49 51°14.235 2°55.297 22.0476 0.072654 0.423864 -1.035392
2010-05-25 14:29:49 51°14.127 2°55.405 22.057 0.07255 0.423309 -1.035392
2010-05-25 14:30:49 51°14.023 2°55.487 22.0545 0.07255 0.423361 -1.035392
2010-05-25 14:31:49 51°13.926 2°55.558 22.0755 0.07255 0.423384 -1.000568
2010-05-25 14:32:49 51°13.826 2°55.63 22.0963 0.07255 0.423443 -1.035392
2010-05-25 14:33:49 51°13.747 2°55.727 22.114 0.07255 0.423488 -1.035392
2010-05-25 14:34:49 51°13.7 2°55.822 22.1115 0.07255 0.423503 -1.000568
2010-05-25 14:35:49 51°13.671 2°55.913 22.1357 0.07255 0.423533 -1.000568
2010-05-25 14:36:49 51°13.667 2°55.944 22.1475 0.07255 0.423555 -1.000568
2010-05-25 14:37:49 51°13.666 2°55.949 22.1756 0.07255 0.42357 -1.035392